PWSweather.com
Personal Weather Stations
Station Observations
WATERF01
WaterfordIE

WaterfordIE

Lat: 52.2412507, Lon: -7.1414691

Elevation: 65

Station Type: Davis Vantage Vue

Latest ConditionsUpdated 11:00:00 PM GMT Wednesday, Oct 16, 2019
Currently Today's Max Today's Min Today's Average
Temperature 52.6°F11.4°C 59.0°F15.0°C 43.9°F6.6°C 51.6°F10.9°C
Dew Point 46.3°F7.9°C 48.6°F9.2°C 40.3°F4.6°C 45.3°F7.4°C
Winds 8.1 mph SW13.0 kmh SW 10.4 mph -16.7 kmh - - 3.9 mph 6.3 kmh
Wind Gusts 13.8 mph22.2 kmh 19.6 mph31.5 kmh - -
Humidity 79% 88% 66% 79%
Pressure 29.57 in1001.4 mb 29.60 in1002.4 mb 29.39 in995.3 mb -
Hour Temp Dew Point Humidity Winds Wind Gusts Pressure Precip Precip Rate Daily Precip Total
11:00 PM 52.6°F11.4°C 46.3°F7.9°C 79% 8.1 mph SW13.0 kmh SW 13.8 mph22.2 kmh 29.57 in1001.4 mb - 0.00 in0.0 mm 0.01 in0.3 mm
10:50 PM 52.9°F11.6°C 46.6°F8.1°C 79% 5.8 mph SW9.3 kmh SW 8.1 mph13.0 kmh 29.57 in1001.4 mb - 0.00 in0.0 mm 0.01 in0.3 mm
10:40 PM 53.1°F11.7°C 46.4°F8.0°C 78% 6.9 mph WSW11.1 kmh WSW 11.5 mph18.5 kmh 29.57 in1001.4 mb - 0.00 in0.0 mm 0.01 in0.3 mm
10:30 PM 52.8°F11.6°C 46.1°F7.8°C 78% 8.1 mph WSW13.0 kmh WSW 16.1 mph25.9 kmh 29.56 in1001.0 mb - 0.00 in0.0 mm 0.01 in0.3 mm
10:20 PM 52.6°F11.4°C 45.9°F7.7°C 78% 4.6 mph SW7.4 kmh SW 11.5 mph18.5 kmh 29.57 in1001.4 mb - 0.00 in0.0 mm 0.01 in0.3 mm
10:10 PM 52.5°F11.4°C 46.2°F7.9°C 79% 5.8 mph SW9.3 kmh SW 6.9 mph11.1 kmh 29.57 in1001.4 mb - 0.00 in0.0 mm 0.01 in0.3 mm
10:00 PM 52.2°F11.2°C 46.9°F8.3°C 82% 5.8 mph WSW9.3 kmh WSW 11.5 mph18.5 kmh 29.57 in1001.4 mb - 0.00 in0.0 mm 0.01 in0.3 mm
09:50 PM 51.7°F10.9°C 46.4°F8.0°C 82% 4.6 mph SW7.4 kmh SW 9.2 mph14.8 kmh 29.57 in1001.4 mb - 0.00 in0.0 mm 0.01 in0.3 mm
09:40 PM 51.4°F10.8°C 46.1°F7.8°C 82% 5.8 mph WSW9.3 kmh WSW 11.5 mph18.5 kmh 29.57 in1001.4 mb - 0.00 in0.0 mm 0.01 in0.3 mm
09:30 PM 51.2°F10.7°C 45.6°F7.6°C 81% 2.3 mph S3.7 kmh S 5.8 mph9.3 kmh 29.57 in1001.4 mb - 0.00 in0.0 mm 0.01 in0.3 mm
09:20 PM 51.4°F10.8°C 45.4°F7.4°C 80% 4.6 mph ENE7.4 kmh ENE 6.9 mph11.1 kmh 29.58 in1001.7 mb - 0.00 in0.0 mm 0.01 in0.3 mm
09:10 PM 51.8°F11.0°C 45.8°F7.7°C 80% 3.5 mph WSW5.6 kmh WSW 8.1 mph13.0 kmh 29.58 in1001.7 mb - 0.00 in0.0 mm 0.01 in0.3 mm
09:00 PM 52.5°F11.4°C 45.8°F7.7°C 78% 6.9 mph WSW11.1 kmh WSW 13.8 mph22.2 kmh 29.58 in1001.7 mb - 0.00 in0.0 mm 0.01 in0.3 mm
08:50 PM 53.1°F11.7°C 45.7°F7.6°C 76% 6.9 mph WSW11.1 kmh WSW 9.2 mph14.8 kmh 29.58 in1001.7 mb - 0.00 in0.0 mm 0.01 in0.3 mm
08:40 PM 53.3°F11.8°C 46.2°F7.9°C 77% 6.9 mph WSW11.1 kmh WSW 18.4 mph29.6 kmh 29.58 in1001.7 mb - 0.00 in0.0 mm 0.01 in0.3 mm
08:30 PM 52.9°F11.6°C 46.2°F7.9°C 78% 5.8 mph SSW9.3 kmh SSW 11.5 mph18.5 kmh 29.57 in1001.4 mb - 0.00 in0.0 mm 0.01 in0.3 mm
08:20 PM 52.6°F11.4°C 45.9°F7.7°C 78% 6.9 mph SW11.1 kmh SW 12.7 mph20.4 kmh 29.57 in1001.4 mb - 0.00 in0.0 mm 0.01 in0.3 mm
08:10 PM 52.4°F11.3°C 45.7°F7.6°C 78% 5.8 mph NW9.3 kmh NW 11.5 mph18.5 kmh 29.57 in1001.4 mb - 0.00 in0.0 mm 0.01 in0.3 mm
08:00 PM 52.1°F11.2°C 45.8°F7.7°C 79% 6.9 mph SW11.1 kmh SW 13.8 mph22.2 kmh 29.57 in1001.4 mb - 0.00 in0.0 mm 0.01 in0.3 mm
07:50 PM 51.9°F11.1°C 45.9°F7.7°C 80% 3.5 mph W5.6 kmh W 8.1 mph13.0 kmh 29.57 in1001.4 mb - 0.00 in0.0 mm 0.01 in0.3 mm
07:40 PM 51.9°F11.1°C 45.6°F7.6°C 79% 3.5 mph S5.6 kmh S 6.9 mph11.1 kmh 29.58 in1001.7 mb - 0.00 in0.0 mm 0.01 in0.3 mm
07:30 PM 51.8°F11.0°C 45.5°F7.5°C 79% 4.6 mph WSW7.4 kmh WSW 8.1 mph13.0 kmh 29.58 in1001.7 mb - 0.00 in0.0 mm 0.01 in0.3 mm
07:20 PM 51.8°F11.0°C 45.5°F7.5°C 79% 1.2 mph NW1.9 kmh NW 5.8 mph9.3 kmh 29.58 in1001.7 mb - 0.00 in0.0 mm 0.01 in0.3 mm
07:10 PM 51.6°F10.9°C 45.0°F7.2°C 78% 3.5 mph WSW5.6 kmh WSW 5.8 mph9.3 kmh 29.58 in1001.7 mb - 0.00 in0.0 mm 0.01 in0.3 mm
07:00 PM 51.6°F10.9°C 45.0°F7.2°C 78% 3.5 mph W5.6 kmh W 5.8 mph9.3 kmh 29.58 in1001.7 mb - 0.00 in0.0 mm 0.01 in0.3 mm
06:50 PM 51.7°F10.9°C 44.7°F7.1°C 77% 3.5 mph SW5.6 kmh SW 5.8 mph9.3 kmh 29.58 in1001.7 mb - 0.00 in0.0 mm 0.01 in0.3 mm
06:40 PM 51.8°F11.0°C 44.8°F7.1°C 77% 3.5 mph W5.6 kmh W 6.9 mph11.1 kmh 29.58 in1001.7 mb - 0.00 in0.0 mm 0.01 in0.3 mm
06:30 PM 51.8°F11.0°C 44.8°F7.1°C 77% 3.5 mph SW5.6 kmh SW 5.8 mph9.3 kmh 29.58 in1001.7 mb - 0.00 in0.0 mm 0.01 in0.3 mm
06:20 PM 51.8°F11.0°C 44.8°F7.1°C 77% 4.6 mph WSW7.4 kmh WSW 8.1 mph13.0 kmh 29.58 in1001.7 mb - 0.00 in0.0 mm 0.01 in0.3 mm
06:10 PM 51.9°F11.1°C 44.9°F7.2°C 77% 2.3 mph WSW3.7 kmh WSW 5.8 mph9.3 kmh 29.59 in1002.0 mb - 0.00 in0.0 mm 0.01 in0.3 mm
06:00 PM 52.3°F11.3°C 45.0°F7.2°C 76% 2.3 mph WSW3.7 kmh WSW 5.8 mph9.3 kmh 29.58 in1001.7 mb - 0.00 in0.0 mm 0.01 in0.3 mm
05:50 PM 52.5°F11.4°C 45.2°F7.3°C 76% 4.6 mph W7.4 kmh W 8.1 mph13.0 kmh 29.58 in1001.7 mb - 0.00 in0.0 mm 0.01 in0.3 mm
05:40 PM 52.8°F11.6°C 45.8°F7.7°C 77% 3.5 mph W5.6 kmh W 8.1 mph13.0 kmh 29.58 in1001.7 mb - 0.00 in0.0 mm 0.01 in0.3 mm
05:30 PM 53.4°F11.9°C 46.0°F7.8°C 76% 4.6 mph WSW7.4 kmh WSW 6.9 mph11.1 kmh 29.58 in1001.7 mb - 0.00 in0.0 mm 0.01 in0.3 mm
05:20 PM 54.1°F12.3°C 46.0°F7.8°C 74% 2.3 mph W3.7 kmh W 5.8 mph9.3 kmh 29.58 in1001.7 mb - 0.00 in0.0 mm 0.01 in0.3 mm
05:10 PM 54.7°F12.6°C 46.6°F8.1°C 74% 2.3 mph SW3.7 kmh SW 5.8 mph9.3 kmh 29.58 in1001.7 mb - 0.00 in0.0 mm 0.01 in0.3 mm
05:00 PM 55.3°F12.9°C 46.8°F8.2°C 73% 4.6 mph WSW7.4 kmh WSW 8.1 mph13.0 kmh 29.58 in1001.7 mb - 0.00 in0.0 mm 0.01 in0.3 mm
04:50 PM 55.8°F13.2°C 46.5°F8.1°C 71% 4.6 mph WSW7.4 kmh WSW 9.2 mph14.8 kmh 29.58 in1001.7 mb - 0.00 in0.0 mm 0.01 in0.3 mm
04:40 PM 56.2°F13.4°C 46.6°F8.1°C 70% 8.1 mph W13.0 kmh W 12.7 mph20.4 kmh 29.58 in1001.7 mb - 0.00 in0.0 mm 0.01 in0.3 mm
04:30 PM 56.6°F13.7°C 47.3°F8.5°C 71% 5.8 mph W9.3 kmh W 8.1 mph13.0 kmh 29.58 in1001.7 mb - 0.00 in0.0 mm 0.01 in0.3 mm
04:20 PM 56.7°F13.7°C 47.0°F8.3°C 70% 5.8 mph W9.3 kmh W 11.5 mph18.5 kmh 29.58 in1001.7 mb - 0.00 in0.0 mm 0.01 in0.3 mm
04:10 PM 57.3°F14.1°C 47.6°F8.7°C 70% 5.8 mph WSW9.3 kmh WSW 11.5 mph18.5 kmh 29.58 in1001.7 mb - 0.00 in0.0 mm 0.01 in0.3 mm
04:00 PM 57.3°F14.1°C 47.2°F8.4°C 69% 4.6 mph S7.4 kmh S 9.2 mph14.8 kmh 29.58 in1001.7 mb - 0.00 in0.0 mm 0.01 in0.3 mm
03:50 PM 57.0°F13.9°C 46.5°F8.1°C 68% 4.6 mph W7.4 kmh W 9.2 mph14.8 kmh 29.58 in1001.7 mb - 0.00 in0.0 mm 0.01 in0.3 mm
03:40 PM 56.4°F13.6°C 47.1°F8.4°C 71% 4.6 mph WSW7.4 kmh WSW 9.2 mph14.8 kmh 29.59 in1002.0 mb - 0.00 in0.0 mm 0.01 in0.3 mm
03:30 PM 56.9°F13.8°C 46.8°F8.2°C 69% 8.1 mph WSW13.0 kmh WSW 12.7 mph20.4 kmh 29.59 in1002.0 mb - 0.00 in0.0 mm 0.01 in0.3 mm
03:20 PM 57.6°F14.2°C 47.9°F8.8°C 70% 9.2 mph WSW14.8 kmh WSW 15.0 mph24.1 kmh 29.59 in1002.0 mb - 0.00 in0.0 mm 0.01 in0.3 mm
03:10 PM 57.5°F14.2°C 47.0°F8.3°C 68% 9.2 mph WSW14.8 kmh WSW 11.5 mph18.5 kmh 29.59 in1002.0 mb - 0.00 in0.0 mm 0.01 in0.3 mm
03:00 PM 58.2°F14.6°C 47.3°F8.5°C 67% 6.9 mph W11.1 kmh W 12.7 mph20.4 kmh 29.59 in1002.0 mb - 0.00 in0.0 mm 0.01 in0.3 mm
02:40 PM 58.6°F14.8°C 47.7°F8.7°C 67% 8.1 mph SSW13.0 kmh SSW 11.5 mph18.5 kmh 29.59 in1002.0 mb - 0.00 in0.0 mm 0.01 in0.3 mm
02:30 PM 58.5°F14.7°C 47.1°F8.4°C 66% 5.8 mph WSW9.3 kmh WSW 13.8 mph22.2 kmh 29.59 in1002.0 mb - 0.00 in0.0 mm 0.01 in0.3 mm
02:20 PM 58.6°F14.8°C 47.7°F8.7°C 67% 5.8 mph SW9.3 kmh SW 13.8 mph22.2 kmh 29.59 in1002.0 mb - 0.00 in0.0 mm 0.01 in0.3 mm
02:10 PM 59.0°F15.0°C 47.6°F8.7°C 66% 5.8 mph W9.3 kmh W 11.5 mph18.5 kmh 29.59 in1002.0 mb - 0.00 in0.0 mm 0.01 in0.3 mm
02:00 PM 58.8°F14.9°C 47.9°F8.8°C 67% 6.9 mph SW11.1 kmh SW 11.5 mph18.5 kmh 29.59 in1002.0 mb - 0.00 in0.0 mm 0.01 in0.3 mm
01:50 PM 58.7°F14.8°C 48.6°F9.2°C 69% 4.6 mph W7.4 kmh W 12.7 mph20.4 kmh 29.59 in1002.0 mb - 0.00 in0.0 mm 0.01 in0.3 mm
01:40 PM 58.2°F14.6°C 47.7°F8.7°C 68% 6.9 mph SW11.1 kmh SW 16.1 mph25.9 kmh 29.59 in1002.0 mb - 0.00 in0.0 mm 0.01 in0.3 mm
01:30 PM 58.5°F14.7°C 48.0°F8.9°C 68% 5.8 mph SW9.3 kmh SW 13.8 mph22.2 kmh 29.59 in1002.0 mb - 0.00 in0.0 mm 0.01 in0.3 mm
01:20 PM 58.7°F14.8°C 48.6°F9.2°C 69% 4.6 mph WSW7.4 kmh WSW 11.5 mph18.5 kmh 29.60 in1002.4 mb - 0.00 in0.0 mm 0.01 in0.3 mm
01:10 PM 58.6°F14.8°C 48.5°F9.2°C 69% 4.6 mph W7.4 kmh W 8.1 mph13.0 kmh 29.60 in1002.4 mb - 0.00 in0.0 mm 0.01 in0.3 mm
01:00 PM 57.7°F14.3°C 47.6°F8.7°C 69% 3.5 mph WSW5.6 kmh WSW 8.1 mph13.0 kmh 29.60 in1002.4 mb - 0.00 in0.0 mm 0.01 in0.3 mm
12:50 PM 58.1°F14.5°C 47.2°F8.4°C 67% 5.8 mph SW9.3 kmh SW 9.2 mph14.8 kmh 29.60 in1002.4 mb - 0.00 in0.0 mm 0.01 in0.3 mm
12:30 PM 58.0°F14.4°C 48.2°F9.0°C 70% 5.8 mph SW9.3 kmh SW 12.7 mph20.4 kmh 29.60 in1002.4 mb - 0.00 in0.0 mm 0.01 in0.3 mm
12:20 PM 57.2°F14.0°C 47.1°F8.4°C 69% 6.9 mph WSW11.1 kmh WSW 8.1 mph13.0 kmh 29.60 in1002.4 mb - 0.00 in0.0 mm 0.01 in0.3 mm
12:10 PM 57.0°F13.9°C 47.3°F8.5°C 70% 6.9 mph WSW11.1 kmh WSW 12.7 mph20.4 kmh 29.59 in1002.0 mb - 0.00 in0.0 mm 0.01 in0.3 mm
12:00 PM 56.7°F13.7°C 48.1°F8.9°C 73% 5.8 mph SW9.3 kmh SW 12.7 mph20.4 kmh 29.60 in1002.4 mb - 0.00 in0.0 mm 0.01 in0.3 mm
11:50 AM 55.9°F13.3°C 47.3°F8.5°C 73% 4.6 mph W7.4 kmh W 8.1 mph13.0 kmh 29.60 in1002.4 mb - 0.00 in0.0 mm 0.01 in0.3 mm
11:40 AM 55.6°F13.1°C 47.1°F8.4°C 73% 8.1 mph W13.0 kmh W 8.1 mph13.0 kmh 29.60 in1002.4 mb - 0.00 in0.0 mm 0.01 in0.3 mm
11:30 AM 55.6°F13.1°C 47.1°F8.4°C 73% 5.8 mph W9.3 kmh W 11.5 mph18.5 kmh 29.60 in1002.4 mb - 0.00 in0.0 mm 0.01 in0.3 mm
11:20 AM 55.5°F13.1°C 47.7°F8.7°C 75% 8.1 mph W13.0 kmh W 11.5 mph18.5 kmh 29.60 in1002.4 mb - 0.00 in0.0 mm 0.01 in0.3 mm
11:10 AM 55.0°F12.8°C 47.2°F8.4°C 75% 4.6 mph W7.4 kmh W 9.2 mph14.8 kmh 29.60 in1002.4 mb - 0.00 in0.0 mm 0.01 in0.3 mm
11:00 AM 54.9°F12.7°C 47.2°F8.4°C 75% 5.8 mph SW9.3 kmh SW 8.1 mph13.0 kmh 29.59 in1002.0 mb - 0.00 in0.0 mm 0.01 in0.3 mm
10:50 AM 54.5°F12.5°C 47.1°F8.4°C 76% 3.5 mph W5.6 kmh W 8.1 mph13.0 kmh 29.59 in1002.0 mb - 0.00 in0.0 mm 0.01 in0.3 mm
10:40 AM 54.0°F12.2°C 46.6°F8.1°C 76% 4.6 mph WSW7.4 kmh WSW 6.9 mph11.1 kmh 29.59 in1002.0 mb - 0.00 in0.0 mm 0.01 in0.3 mm
10:30 AM 53.7°F12.1°C 46.7°F8.2°C 77% 6.9 mph WSW11.1 kmh WSW 9.2 mph14.8 kmh 29.59 in1002.0 mb - 0.00 in0.0 mm 0.01 in0.3 mm
10:20 AM 53.4°F11.9°C 46.7°F8.2°C 78% 8.1 mph W13.0 kmh W 11.5 mph18.5 kmh 29.59 in1002.0 mb - 0.00 in0.0 mm 0.01 in0.3 mm
10:10 AM 53.2°F11.8°C 46.5°F8.1°C 78% 6.9 mph WSW11.1 kmh WSW 11.5 mph18.5 kmh 29.59 in1002.0 mb - 0.00 in0.0 mm 0.01 in0.3 mm
10:00 AM 53.0°F11.7°C 47.0°F8.3°C 80% 5.8 mph W9.3 kmh W 11.5 mph18.5 kmh 29.58 in1001.7 mb - 0.00 in0.0 mm 0.01 in0.3 mm
09:50 AM 52.4°F11.3°C 46.4°F8.0°C 80% 3.5 mph W5.6 kmh W 8.1 mph13.0 kmh 29.58 in1001.7 mb - 0.00 in0.0 mm 0.01 in0.3 mm
09:40 AM 52.1°F11.2°C 46.1°F7.8°C 80% 5.8 mph W9.3 kmh W 8.1 mph13.0 kmh 29.58 in1001.7 mb - 0.00 in0.0 mm 0.01 in0.3 mm
09:30 AM 51.7°F10.9°C 45.7°F7.6°C 80% 4.6 mph WSW7.4 kmh WSW 8.1 mph13.0 kmh 29.58 in1001.7 mb - 0.00 in0.0 mm 0.01 in0.3 mm
09:20 AM 51.2°F10.7°C 45.9°F7.7°C 82% 3.5 mph WSW5.6 kmh WSW 5.8 mph9.3 kmh 29.58 in1001.7 mb - 0.00 in0.0 mm 0.01 in0.3 mm
09:10 AM 50.7°F10.4°C 45.7°F7.6°C 83% 1.2 mph WSW1.9 kmh WSW 5.8 mph9.3 kmh 29.58 in1001.7 mb - 0.00 in0.0 mm 0.01 in0.3 mm
09:00 AM 50.0°F10.0°C 45.3°F7.4°C 84% 1.2 mph W1.9 kmh W -- 29.58 in1001.7 mb - 0.00 in0.0 mm 0.01 in0.3 mm
08:50 AM 48.9°F9.4°C 44.5°F6.9°C 85% Calm Calm 4.6 mph7.4 kmh 29.58 in1001.7 mb - 0.00 in0.0 mm 0.01 in0.3 mm
08:40 AM 48.3°F9.1°C 44.0°F6.7°C 85% 2.3 mph W3.7 kmh W 2.3 mph3.7 kmh 29.58 in1001.7 mb - 0.00 in0.0 mm 0.01 in0.3 mm
08:30 AM 48.1°F8.9°C 43.8°F6.6°C 85% Calm Calm -- 29.57 in1001.4 mb - 0.00 in0.0 mm 0.01 in0.3 mm
08:20 AM 47.5°F8.6°C 43.5°F6.4°C 86% Calm Calm -- 29.57 in1001.4 mb - 0.00 in0.0 mm 0.01 in0.3 mm
08:10 AM 47.0°F8.3°C 43.0°F6.1°C 86% Calm Calm -- 29.57 in1001.4 mb - 0.00 in0.0 mm 0.01 in0.3 mm
08:00 AM 46.1°F7.8°C 42.4°F5.8°C 87% Calm Calm -- 29.57 in1001.4 mb - 0.00 in0.0 mm 0.01 in0.3 mm
07:50 AM 45.5°F7.5°C 41.9°F5.5°C 87% Calm Calm -- 29.56 in1001.0 mb - 0.00 in0.0 mm 0.01 in0.3 mm
07:40 AM 44.9°F7.2°C 41.3°F5.2°C 87% Calm Calm -- 29.56 in1001.0 mb - 0.00 in0.0 mm 0.01 in0.3 mm
07:30 AM 44.2°F6.8°C 40.6°F4.8°C 87% Calm Calm -- 29.55 in1000.7 mb - 0.00 in0.0 mm 0.01 in0.3 mm
07:20 AM 43.9°F6.6°C 40.3°F4.6°C 87% Calm Calm -- 29.55 in1000.7 mb - 0.00 in0.0 mm 0.01 in0.3 mm
07:10 AM 44.0°F6.7°C 40.4°F4.7°C 87% Calm Calm -- 29.55 in1000.7 mb - 0.00 in0.0 mm 0.01 in0.3 mm
07:00 AM 44.3°F6.8°C 40.7°F4.8°C 87% Calm Calm -- 29.55 in1000.7 mb - 0.00 in0.0 mm 0.01 in0.3 mm
06:50 AM 44.8°F7.1°C 41.2°F5.1°C 87% Calm Calm 1.2 mph1.9 kmh 29.54 in1000.3 mb - 0.00 in0.0 mm 0.01 in0.3 mm
06:40 AM 44.7°F7.1°C 41.1°F5.1°C 87% 1.2 mph W1.9 kmh W 2.3 mph3.7 kmh 29.54 in1000.3 mb - 0.00 in0.0 mm 0.01 in0.3 mm
06:30 AM 44.1°F6.7°C 40.5°F4.7°C 87% Calm Calm 2.3 mph3.7 kmh 29.54 in1000.3 mb - 0.00 in0.0 mm 0.01 in0.3 mm
06:20 AM 44.0°F6.7°C 40.4°F4.7°C 87% Calm Calm 2.3 mph3.7 kmh 29.53 in1000.0 mb - 0.00 in0.0 mm 0.01 in0.3 mm
06:10 AM 44.1°F6.7°C 40.5°F4.7°C 87% Calm Calm -- 29.54 in1000.3 mb - 0.00 in0.0 mm 0.01 in0.3 mm
06:00 AM 44.4°F6.9°C 40.8°F4.9°C 87% Calm Calm -- 29.53 in1000.0 mb - 0.00 in0.0 mm 0.01 in0.3 mm
05:50 AM 44.4°F6.9°C 41.1°F5.1°C 88% Calm Calm -- 29.53 in1000.0 mb - 0.00 in0.0 mm 0.01 in0.3 mm
05:40 AM 44.0°F6.7°C 40.7°F4.8°C 88% 2.3 mph W3.7 kmh W 4.6 mph7.4 kmh 29.53 in1000.0 mb - 0.00 in0.0 mm 0.01 in0.3 mm
05:30 AM 43.9°F6.6°C 40.3°F4.6°C 87% Calm Calm -- 29.53 in1000.0 mb - 0.00 in0.0 mm 0.01 in0.3 mm
05:20 AM 44.0°F6.7°C 40.4°F4.7°C 87% Calm Calm -- 29.52 in999.7 mb - 0.00 in0.0 mm 0.01 in0.3 mm
05:10 AM 44.3°F6.8°C 40.7°F4.8°C 87% Calm Calm -- 29.52 in999.7 mb - 0.00 in0.0 mm 0.01 in0.3 mm
05:00 AM 44.7°F7.1°C 41.1°F5.1°C 87% Calm Calm -- 29.51 in999.3 mb - 0.00 in0.0 mm 0.01 in0.3 mm
04:50 AM 45.1°F7.3°C 41.4°F5.2°C 87% Calm Calm -- 29.51 in999.3 mb - 0.00 in0.0 mm 0.01 in0.3 mm
04:40 AM 45.0°F7.2°C 41.1°F5.1°C 86% Calm Calm -- 29.50 in999.0 mb - 0.00 in0.0 mm 0.01 in0.3 mm
04:30 AM 45.5°F7.5°C 41.6°F5.3°C 86% Calm Calm -- 29.50 in999.0 mb - 0.00 in0.0 mm 0.01 in0.3 mm
04:20 AM 45.9°F7.7°C 41.9°F5.5°C 86% Calm Calm -- 29.50 in999.0 mb - 0.00 in0.0 mm 0.01 in0.3 mm
04:10 AM 46.4°F8.0°C 42.4°F5.8°C 86% Calm Calm -- 29.49 in998.6 mb - 0.00 in0.0 mm 0.01 in0.3 mm
04:00 AM 46.7°F8.2°C 42.7°F5.9°C 86% 1.2 mph W1.9 kmh W 2.3 mph3.7 kmh 29.49 in998.6 mb - 0.00 in0.0 mm 0.01 in0.3 mm
03:50 AM 46.5°F8.1°C 42.5°F5.8°C 86% 2.3 mph W3.7 kmh W 5.8 mph9.3 kmh 29.49 in998.6 mb - 0.00 in0.0 mm 0.01 in0.3 mm
03:40 AM 46.8°F8.2°C 42.6°F5.9°C 85% 1.2 mph WNW1.9 kmh WNW 2.3 mph3.7 kmh 29.48 in998.3 mb - 0.00 in0.0 mm 0.01 in0.3 mm
03:30 AM 47.9°F8.8°C 43.3°F6.3°C 84% 1.2 mph WNW1.9 kmh WNW 2.3 mph3.7 kmh 29.48 in998.3 mb - 0.00 in0.0 mm 0.01 in0.3 mm
03:20 AM 48.7°F9.3°C 44.1°F6.7°C 84% Calm Calm -- 29.48 in998.3 mb - 0.00 in0.0 mm 0.01 in0.3 mm
03:10 AM 48.9°F9.4°C 44.3°F6.8°C 84% 2.3 mph WNW3.7 kmh WNW 2.3 mph3.7 kmh 29.47 in998.0 mb - 0.00 in0.0 mm 0.01 in0.3 mm
03:00 AM 48.8°F9.3°C 44.5°F6.9°C 85% 1.2 mph W1.9 kmh W 2.3 mph3.7 kmh 29.47 in998.0 mb - 0.00 in0.0 mm 0.01 in0.3 mm
02:50 AM 48.6°F9.2°C 44.6°F7.0°C 86% Calm Calm -- 29.46 in997.6 mb - 0.00 in0.0 mm 0.01 in0.3 mm
02:40 AM 48.3°F9.1°C 44.3°F6.8°C 86% Calm Calm -- 29.46 in997.6 mb - 0.00 in0.0 mm 0.01 in0.3 mm
02:30 AM 48.5°F9.2°C 44.5°F6.9°C 86% Calm Calm 2.3 mph3.7 kmh 29.46 in997.6 mb - 0.00 in0.0 mm 0.01 in0.3 mm
02:20 AM 48.7°F9.3°C 44.7°F7.1°C 86% 1.2 mph W1.9 kmh W 2.3 mph3.7 kmh 29.45 in997.3 mb - 0.00 in0.0 mm 0.01 in0.3 mm
02:10 AM 49.1°F9.5°C 45.1°F7.3°C 86% Calm Calm -- 29.46 in997.6 mb - 0.00 in0.0 mm 0.01 in0.3 mm
02:00 AM 49.8°F9.9°C 45.4°F7.4°C 85% Calm Calm -- 29.45 in997.3 mb - 0.00 in0.0 mm 0.01 in0.3 mm
01:50 AM 50.4°F10.2°C 46.1°F7.8°C 85% 2.3 mph W3.7 kmh W 2.3 mph3.7 kmh 29.45 in997.3 mb - 0.00 in0.0 mm 0.01 in0.3 mm
01:40 AM 50.9°F10.5°C 46.6°F8.1°C 85% 3.5 mph W5.6 kmh W 5.8 mph9.3 kmh 29.44 in997.0 mb - 0.00 in0.0 mm 0.01 in0.3 mm
01:30 AM 51.1°F10.6°C 46.8°F8.2°C 85% 4.6 mph W7.4 kmh W 8.1 mph13.0 kmh 29.44 in997.0 mb - 0.00 in0.0 mm 0.01 in0.3 mm
01:20 AM 51.3°F10.7°C 46.9°F8.3°C 85% 4.6 mph WNW7.4 kmh WNW 8.1 mph13.0 kmh 29.43 in996.6 mb - 0.00 in0.0 mm 0.01 in0.3 mm
01:10 AM 51.4°F10.8°C 47.0°F8.3°C 85% 4.6 mph WNW7.4 kmh WNW 11.5 mph18.5 kmh 29.42 in996.3 mb - 0.00 in0.0 mm 0.01 in0.3 mm
01:00 AM 51.5°F10.8°C 47.1°F8.4°C 85% 5.8 mph NW9.3 kmh NW 13.8 mph22.2 kmh 29.42 in996.3 mb - 0.00 in0.0 mm 0.01 in0.3 mm
12:50 AM 51.5°F10.8°C 47.2°F8.4°C 85% 9.2 mph NW14.8 kmh NW 15.0 mph24.1 kmh 29.42 in996.3 mb - 0.00 in0.0 mm 0.01 in0.3 mm
12:40 AM 51.6°F10.9°C 47.2°F8.4°C 85% 5.8 mph W9.3 kmh W 13.8 mph22.2 kmh 29.41 in995.9 mb - 0.00 in0.0 mm 0.01 in0.3 mm
12:30 AM 51.6°F10.9°C 47.2°F8.4°C 85% 9.2 mph WNW14.8 kmh WNW 11.5 mph18.5 kmh 29.41 in995.9 mb - 0.00 in0.0 mm 0.01 in0.3 mm
12:20 AM 51.6°F10.9°C 47.2°F8.4°C 85% 10.4 mph WNW16.7 kmh WNW 16.1 mph25.9 kmh 29.40 in995.6 mb - 0.00 in0.0 mm 0.01 in0.3 mm
12:10 AM 51.4°F10.8°C 47.4°F8.6°C 86% 6.9 mph WNW11.1 kmh WNW 19.6 mph31.5 kmh 29.40 in995.6 mb - 0.00 in0.0 mm 0.01 in0.3 mm
12:00 AM 51.3°F10.7°C 47.3°F8.5°C 86% 8.1 mph WNW13.0 kmh WNW 13.8 mph22.2 kmh 29.39 in995.3 mb - 0.01 in0.3 mm 0.01 in0.3 mm